sensor_id;sensor_type;location;lat;lon;timestamp;pressure;altitude;pressure_sealevel;temperature;humidity
46944;BME280;32678;43.852;25.952;2024-02-21T00:04:48;101957.03;;;6.43;79.49
46944;BME280;32678;43.852;25.952;2024-02-21T00:09:45;101948.38;;;6.49;78.83
46944;BME280;32678;43.852;25.952;2024-02-21T00:14:42;101943.19;;;6.73;77.78
46944;BME280;32678;43.852;25.952;2024-02-21T00:19:39;101935.34;;;6.70;77.14
46944;BME280;32678;43.852;25.952;2024-02-21T00:24:36;101936.19;;;6.52;77.76
46944;BME280;32678;43.852;25.952;2024-02-21T00:29:33;101935.34;;;6.52;78.03
46944;BME280;32678;43.852;25.952;2024-02-21T00:34:31;101928.41;;;6.66;77.55
46944;BME280;32678;43.852;25.952;2024-02-21T00:39:27;101931.06;;;6.98;75.66
46944;BME280;32678;43.852;25.952;2024-02-21T00:44:25;101918.88;;;6.74;77.35
46944;BME280;32678;43.852;25.952;2024-02-21T00:49:21;101918.88;;;6.94;76.59
46944;BME280;32678;43.852;25.952;2024-02-21T00:54:18;101912.78;;;7.00;75.92
46944;BME280;32678;43.852;25.952;2024-02-21T00:59:14;101905.00;;;6.98;75.36
46944;BME280;32678;43.852;25.952;2024-02-21T01:04:12;101914.53;;;6.81;76.23
46944;BME280;32678;43.852;25.952;2024-02-21T01:09:09;101911.94;;;6.73;76.39
46944;BME280;32678;43.852;25.952;2024-02-21T01:14:05;101917.13;;;6.90;76.29
46944;BME280;32678;43.852;25.952;2024-02-21T01:19:02;101928.44;;;7.10;74.39
46944;BME280;32678;43.852;25.952;2024-02-21T01:23:59;101910.19;;;7.12;73.47
46944;BME280;32678;43.852;25.952;2024-02-21T01:28:56;101914.53;;;6.99;73.84
46944;BME280;32678;43.852;25.952;2024-02-21T01:33:52;101907.59;;;6.69;75.14
46944;BME280;32678;43.852;25.952;2024-02-21T01:38:49;101897.13;;;6.57;75.63
46944;BME280;32678;43.852;25.952;2024-02-21T01:43:46;101892.78;;;6.70;75.11
46944;BME280;32678;43.852;25.952;2024-02-21T01:48:43;101872.84;;;6.69;75.32
46944;BME280;32678;43.852;25.952;2024-02-21T01:53:42;101865.88;;;6.83;75.20
46944;BME280;32678;43.852;25.952;2024-02-21T01:58:40;101865.88;;;6.98;74.64
46944;BME280;32678;43.852;25.952;2024-02-21T02:03:37;101859.75;;;7.10;74.58
46944;BME280;32678;43.852;25.952;2024-02-21T02:08:34;101838.91;;;6.99;74.34
46944;BME280;32678;43.852;25.952;2024-02-21T02:13:30;101869.38;;;6.83;74.93
46944;BME280;32678;43.852;25.952;2024-02-21T02:18:27;101870.13;;;6.26;76.69
46944;BME280;32678;43.852;25.952;2024-02-21T02:23:25;101869.25;;;6.21;77.59
46944;BME280;32678;43.852;25.952;2024-02-21T02:28:21;101863.16;;;6.16;77.64
46944;BME280;32678;43.852;25.952;2024-02-21T02:33:18;101879.59;;;5.95;78.37
46944;BME280;32678;43.852;25.952;2024-02-21T02:38:15;101882.28;;;6.20;77.68
46944;BME280;32678;43.852;25.952;2024-02-21T02:43:12;101883.09;;;6.03;77.93
46944;BME280;32678;43.852;25.952;2024-02-21T02:48:09;101884.69;;;5.82;78.24
46944;BME280;32678;43.852;25.952;2024-02-21T02:53:06;101884.53;;;5.42;79.24
46944;BME280;32678;43.852;25.952;2024-02-21T02:58:03;101881.81;;;5.30;80.73
46944;BME280;32678;43.852;25.952;2024-02-21T03:03:00;101873.06;;;5.19;81.13
46944;BME280;32678;43.852;25.952;2024-02-21T03:07:57;101875.59;;;5.07;82.09
46944;BME280;32678;43.852;25.952;2024-02-21T03:12:53;101875.84;;;5.43;81.12
46944;BME280;32678;43.852;25.952;2024-02-21T03:17:50;101874.06;;;5.36;81.04
46944;BME280;32678;43.852;25.952;2024-02-21T03:22:47;101869.69;;;5.34;81.60
46944;BME280;32678;43.852;25.952;2024-02-21T03:27:44;101868.03;;;5.43;81.48
46944;BME280;32678;43.852;25.952;2024-02-21T03:32:41;101881.16;;;5.61;80.93
46944;BME280;32678;43.852;25.952;2024-02-21T03:37:37;101878.66;;;5.86;79.21
46944;BME280;32678;43.852;25.952;2024-02-21T03:42:35;101885.59;;;5.85;79.78
46944;BME280;32678;43.852;25.952;2024-02-21T03:47:31;101883.13;;;6.08;78.61
46944;BME280;32678;43.852;25.952;2024-02-21T03:52:31;101878.63;;;5.75;80.12
46944;BME280;32678;43.852;25.952;2024-02-21T03:57:28;101876.84;;;5.70;81.50
46944;BME280;32678;43.852;25.952;2024-02-21T04:02:26;101885.50;;;5.65;81.21
46944;BME280;32678;43.852;25.952;2024-02-21T04:07:22;101876.78;;;5.54;81.84
46944;BME280;32678;43.852;25.952;2024-02-21T04:12:19;101879.50;;;5.80;81.13
46944;BME280;32678;43.852;25.952;2024-02-21T04:17:15;101880.34;;;5.72;81.47
46944;BME280;32678;43.852;25.952;2024-02-21T04:22:13;101880.06;;;5.26;83.70
46944;BME280;32678;43.852;25.952;2024-02-21T04:27:10;101878.38;;;5.34;83.96
46944;BME280;32678;43.852;25.952;2024-02-21T04:32:06;101886.31;;;5.54;82.71
46944;BME280;32678;43.852;25.952;2024-02-21T04:37:04;101887.09;;;5.44;83.99
46944;BME280;32678;43.852;25.952;2024-02-21T04:42:01;101895.03;;;5.60;82.75
46944;BME280;32678;43.852;25.952;2024-02-21T04:46:57;101892.50;;;5.76;82.62
46944;BME280;32678;43.852;25.952;2024-02-21T04:51:54;101901.09;;;5.62;82.90
46944;BME280;32678;43.852;25.952;2024-02-21T04:56:51;101892.41;;;5.59;82.47
46944;BME280;32678;43.852;25.952;2024-02-21T05:01:50;101902.81;;;5.56;82.20
46944;BME280;32678;43.852;25.952;2024-02-21T05:06:46;101909.66;;;5.48;83.53
46944;BME280;32678;43.852;25.952;2024-02-21T05:11:43;101915.94;;;5.79;81.67
46944;BME280;32678;43.852;25.952;2024-02-21T05:16:40;101908.72;;;5.32;83.60
46944;BME280;32678;43.852;25.952;2024-02-21T05:21:38;101914.97;;;5.63;83.07
46944;BME280;32678;43.852;25.952;2024-02-21T05:26:34;101928.09;;;5.81;82.60
46944;BME280;32678;43.852;25.952;2024-02-21T05:31:42;101917.53;;;5.55;84.06
46944;BME280;32678;43.852;25.952;2024-02-21T05:36:40;101928.16;;;5.89;83.32
46944;BME280;32678;43.852;25.952;2024-02-21T05:41:36;101914.19;;;5.79;84.04
46944;BME280;32678;43.852;25.952;2024-02-21T05:46:33;101917.66;;;5.80;84.36
46944;BME280;32678;43.852;25.952;2024-02-21T05:51:32;101914.19;;;5.82;84.42
46944;BME280;32678;43.852;25.952;2024-02-21T05:56:29;101923.03;;;6.01;83.22
46944;BME280;32678;43.852;25.952;2024-02-21T06:01:26;101938.69;;;6.10;82.49
46944;BME280;32678;43.852;25.952;2024-02-21T06:06:23;101942.97;;;5.99;83.29
46944;BME280;32678;43.852;25.952;2024-02-21T06:11:21;101963.91;;;6.28;81.99
46944;BME280;32678;43.852;25.952;2024-02-21T06:16:18;101968.19;;;6.11;82.81
46944;BME280;32678;43.852;25.952;2024-02-21T06:21:15;101974.31;;;6.26;82.63
46944;BME280;32678;43.852;25.952;2024-02-21T06:26:12;101983.97;;;6.61;81.60
46944;BME280;32678;43.852;25.952;2024-02-21T06:31:09;101991.03;;;7.09;80.49
46944;BME280;32678;43.852;25.952;2024-02-21T06:36:06;101991.06;;;7.42;79.34
46944;BME280;32678;43.852;25.952;2024-02-21T06:41:03;102004.06;;;7.77;78.49
46944;BME280;32678;43.852;25.952;2024-02-21T06:46:00;102000.53;;;7.98;77.14
46944;BME280;32678;43.852;25.952;2024-02-21T06:50:57;102009.25;;;7.89;74.71
46944;BME280;32678;43.852;25.952;2024-02-21T06:55:55;102003.22;;;7.42;76.32
46944;BME280;32678;43.852;25.952;2024-02-21T07:00:51;101994.50;;;7.76;76.33
46944;BME280;32678;43.852;25.952;2024-02-21T07:05:49;102004.09;;;7.71;75.88
46944;BME280;32678;43.852;25.952;2024-02-21T07:10:46;101998.00;;;7.57;76.97
46944;BME280;32678;43.852;25.952;2024-02-21T07:15:44;101997.06;;;7.82;76.44
46944;BME280;32678;43.852;25.952;2024-02-21T07:20:40;101993.56;;;7.94;76.55
46944;BME280;32678;43.852;25.952;2024-02-21T07:25:38;102000.50;;;8.14;75.59
46944;BME280;32678;43.852;25.952;2024-02-21T07:30:35;101995.34;;;7.86;75.90
46944;BME280;32678;43.852;25.952;2024-02-21T07:35:33;101997.06;;;7.82;76.47
46944;BME280;32678;43.852;25.952;2024-02-21T07:40:30;102004.94;;;7.33;78.22
46944;BME280;32678;43.852;25.952;2024-02-21T07:45:27;102003.22;;;7.31;78.80
46944;BME280;32678;43.852;25.952;2024-02-21T07:50:24;101989.28;;;7.49;78.63
46944;BME280;32678;43.852;25.952;2024-02-21T07:55:23;101991.91;;;7.33;79.36
46944;BME280;32678;43.852;25.952;2024-02-21T08:00:20;101991.03;;;7.54;79.16
46944;BME280;32678;43.852;25.952;2024-02-21T08:05:17;101995.38;;;7.45;79.64
46944;BME280;32678;43.852;25.952;2024-02-21T08:10:16;102008.44;;;7.55;80.07
46944;BME280;32678;43.852;25.952;2024-02-21T08:15:14;102004.06;;;7.48;80.14
46944;BME280;32678;43.852;25.952;2024-02-21T08:20:11;101999.72;;;7.65;79.64
46944;BME280;32678;43.852;25.952;2024-02-21T08:25:08;102003.19;;;7.75;79.70
46944;BME280;32678;43.852;25.952;2024-02-21T08:30:05;101998.78;;;8.00;79.20
46944;BME280;32678;43.852;25.952;2024-02-21T08:35:05;101997.03;;;8.02;78.71
46944;BME280;32678;43.852;25.952;2024-02-21T08:40:02;101993.56;;;8.03;78.58
46944;BME280;32678;43.852;25.952;2024-02-21T08:45:04;101991.81;;;8.09;78.82
46944;BME280;32678;43.852;25.952;2024-02-21T08:50:01;101997.88;;;8.13;78.59
46944;BME280;32678;43.852;25.952;2024-02-21T08:55:15;101993.47;;;8.36;77.44
46944;BME280;32678;43.852;25.952;2024-02-21T09:00:12;102003.03;;;8.42;77.32
46944;BME280;32678;43.852;25.952;2024-02-21T09:05:09;102001.22;;;8.57;76.87
46944;BME280;32678;43.852;25.952;2024-02-21T09:10:07;101994.16;;;8.72;76.51
46944;BME280;32678;43.852;25.952;2024-02-21T09:15:05;101995.06;;;8.66;76.92
46944;BME280;32678;43.852;25.952;2024-02-21T09:20:02;102009.66;;;9.06;76.04
46944;BME280;32678;43.852;25.952;2024-02-21T09:24:59;102002.69;;;9.02;75.96
46944;BME280;32678;43.852;25.952;2024-02-21T09:29:56;102001.75;;;9.09;76.19
46944;BME280;32678;43.852;25.952;2024-02-21T09:34:54;102006.16;;;9.07;76.22
46944;BME280;32678;43.852;25.952;2024-02-21T09:39:54;102007.75;;;9.27;75.95
46944;BME280;32678;43.852;25.952;2024-02-21T09:44:52;102007.56;;;9.49;75.35
46944;BME280;32678;43.852;25.952;2024-02-21T09:49:49;102009.16;;;9.67;74.82
46944;BME280;32678;43.852;25.952;2024-02-21T09:54:48;101999.53;;;9.71;73.89
46944;BME280;32678;43.852;25.952;2024-02-21T09:59:47;101995.19;;;9.67;73.20
46944;BME280;32678;43.852;25.952;2024-02-21T10:04:47;101985.59;;;9.64;73.50
46944;BME280;32678;43.852;25.952;2024-02-21T10:09:44;101981.16;;;9.74;73.47
46944;BME280;32678;43.852;25.952;2024-02-21T10:14:44;101982.38;;;9.36;74.10
46944;BME280;32678;43.852;25.952;2024-02-21T10:19:40;101970.25;;;9.26;74.59
46944;BME280;32678;43.852;25.952;2024-02-21T10:24:38;101961.34;;;9.44;73.98
46944;BME280;32678;43.852;25.952;2024-02-21T10:29:37;101956.13;;;9.44;74.30
46944;BME280;32678;43.852;25.952;2024-02-21T10:34:34;101945.56;;;9.54;74.41
46944;BME280;32678;43.852;25.952;2024-02-21T10:39:31;101940.41;;;9.44;74.96
46944;BME280;32678;43.852;25.952;2024-02-21T10:44:30;101933.28;;;9.61;74.24
46944;BME280;32678;43.852;25.952;2024-02-21T10:49:30;101917.56;;;9.61;74.57
46944;BME280;32678;43.852;25.952;2024-02-21T10:54:34;101910.59;;;9.58;74.37
46944;BME280;32678;43.852;25.952;2024-02-21T10:59:34;101913.09;;;9.71;74.27
46944;BME280;32678;43.852;25.952;2024-02-21T11:04:31;101907.56;;;9.95;73.48
46944;BME280;32678;43.852;25.952;2024-02-21T11:09:33;101898.16;;;9.80;73.40
46944;BME280;32678;43.852;25.952;2024-02-21T11:14:33;101887.66;;;9.80;74.02
46944;BME280;32678;43.852;25.952;2024-02-21T11:19:32;101879.69;;;9.89;73.71
46944;BME280;32678;43.852;25.952;2024-02-21T11:24:30;101876.97;;;9.97;73.61
46944;BME280;32678;43.852;25.952;2024-02-21T11:29:28;101862.38;;;9.78;74.39
46944;BME280;32678;43.852;25.952;2024-02-21T11:34:26;101864.00;;;9.88;74.31
46944;BME280;32678;43.852;25.952;2024-02-21T11:39:24;101859.50;;;9.99;73.81
46944;BME280;32678;43.852;25.952;2024-02-21T11:44:21;101857.78;;;9.96;74.07
46944;BME280;32678;43.852;25.952;2024-02-21T11:49:18;101851.25;;;10.28;72.82
46944;BME280;32678;43.852;25.952;2024-02-21T11:54:15;101856.38;;;10.37;72.09
46944;BME280;32678;43.852;25.952;2024-02-21T11:59:13;101853.94;;;10.25;72.90
46944;BME280;32678;43.852;25.952;2024-02-21T12:04:09;101847.81;;;10.24;72.79
46944;BME280;32678;43.852;25.952;2024-02-21T12:09:07;101842.50;;;10.29;72.50
46944;BME280;32678;43.852;25.952;2024-02-21T12:14:05;101839.81;;;10.35;71.36
46944;BME280;32678;43.852;25.952;2024-02-21T12:19:03;101831.06;;;10.36;71.14
46944;BME280;32678;43.852;25.952;2024-02-21T12:24:03;101828.16;;;10.53;70.17
46944;BME280;32678;43.852;25.952;2024-02-21T12:29:09;101818.56;;;10.52;69.75
46944;BME280;32678;43.852;25.952;2024-02-21T12:34:06;101817.66;;;10.54;69.36
46944;BME280;32678;43.852;25.952;2024-02-21T12:39:08;101815.72;;;10.65;68.71
46944;BME280;32678;43.852;25.952;2024-02-21T12:44:04;101809.56;;;10.69;68.40
46944;BME280;32678;43.852;25.952;2024-02-21T12:49:04;101810.38;;;10.71;68.35
46944;BME280;32678;43.852;25.952;2024-02-21T12:54:00;101808.47;;;10.81;68.47
46944;BME280;32678;43.852;25.952;2024-02-21T12:58:58;101808.25;;;10.93;67.48
46944;BME280;32678;43.852;25.952;2024-02-21T13:03:59;101795.16;;;10.90;67.40
46944;BME280;32678;43.852;25.952;2024-02-21T13:09:00;101784.59;;;10.95;67.29
46944;BME280;32678;43.852;25.952;2024-02-21T13:13:59;101783.50;;;11.08;66.39
46944;BME280;32678;43.852;25.952;2024-02-21T13:18:56;101781.81;;;11.04;66.93
46944;BME280;32678;43.852;25.952;2024-02-21T13:23:53;101783.31;;;11.18;66.49
46944;BME280;32678;43.852;25.952;2024-02-21T13:28:50;101780.69;;;11.17;66.10
46944;BME280;32678;43.852;25.952;2024-02-21T13:33:47;101786.75;;;11.20;66.11
46944;BME280;32678;43.852;25.952;2024-02-21T13:38:43;101781.00;;;11.00;66.03
46944;BME280;32678;43.852;25.952;2024-02-21T13:43:40;101775.38;;;11.20;65.26
46944;BME280;32678;43.852;25.952;2024-02-21T13:48:40;101763.47;;;11.04;65.52
46944;BME280;32678;43.852;25.952;2024-02-21T13:53:37;101766.72;;;11.15;65.26
46944;BME280;32678;43.852;25.952;2024-02-21T13:58:34;101762.91;;;11.31;65.02
46944;BME280;32678;43.852;25.952;2024-02-21T14:03:31;101752.22;;;11.40;64.81
46944;BME280;32678;43.852;25.952;2024-02-21T14:08:29;101751.16;;;11.49;64.62
46944;BME280;32678;43.852;25.952;2024-02-21T14:13:26;101750.25;;;11.51;64.63
46944;BME280;32678;43.852;25.952;2024-02-21T14:18:26;101740.53;;;11.55;64.57
46944;BME280;32678;43.852;25.952;2024-02-21T14:23:22;101731.75;;;11.56;64.45
46944;BME280;32678;43.852;25.952;2024-02-21T14:28:20;101727.28;;;11.61;64.61
46944;BME280;32678;43.852;25.952;2024-02-21T14:33:17;101722.03;;;11.61;64.42
46944;BME280;32678;43.852;25.952;2024-02-21T14:38:15;101725.44;;;11.64;64.35
46944;BME280;32678;43.852;25.952;2024-02-21T14:43:11;101728.06;;;11.64;64.16
46944;BME280;32678;43.852;25.952;2024-02-21T14:48:09;101727.16;;;11.65;64.34
46944;BME280;32678;43.852;25.952;2024-02-21T14:53:06;101718.84;;;11.45;65.28
46944;BME280;32678;43.852;25.952;2024-02-21T14:58:05;101726.47;;;11.16;66.73
46944;BME280;32678;43.852;25.952;2024-02-21T15:03:02;101726.81;;;11.42;66.01
46944;BME280;32678;43.852;25.952;2024-02-21T15:08:00;101722.31;;;11.47;65.96
46944;BME280;32678;43.852;25.952;2024-02-21T15:13:00;101707.47;;;11.46;66.09
46944;BME280;32678;43.852;25.952;2024-02-21T15:17:57;101716.78;;;11.61;65.84
46944;BME280;32678;43.852;25.952;2024-02-21T15:22:54;101715.09;;;11.57;66.12
46944;BME280;32678;43.852;25.952;2024-02-21T15:27:52;101716.84;;;11.58;66.17
46944;BME280;32678;43.852;25.952;2024-02-21T15:32:49;101714.97;;;11.63;66.19
46944;BME280;32678;43.852;25.952;2024-02-21T15:37:46;101719.38;;;11.62;66.64
46944;BME280;32678;43.852;25.952;2024-02-21T15:42:44;101718.44;;;11.63;66.63
46944;BME280;32678;43.852;25.952;2024-02-21T15:47:42;101712.41;;;11.60;66.70
46944;BME280;32678;43.852;25.952;2024-02-21T15:52:39;101705.50;;;11.56;66.94
46944;BME280;32678;43.852;25.952;2024-02-21T15:57:36;101705.59;;;11.51;67.46
46944;BME280;32678;43.852;25.952;2024-02-21T16:02:33;101714.44;;;11.47;67.82
46944;BME280;32678;43.852;25.952;2024-02-21T16:07:31;101717.00;;;11.49;67.79
46944;BME280;32678;43.852;25.952;2024-02-21T16:12:27;101711.75;;;11.50;67.96
46944;BME280;32678;43.852;25.952;2024-02-21T16:17:29;101722.25;;;11.50;68.27
46944;BME280;32678;43.852;25.952;2024-02-21T16:22:27;101720.59;;;11.46;68.65
46944;BME280;32678;43.852;25.952;2024-02-21T16:27:24;101722.25;;;11.49;68.52
46944;BME280;32678;43.852;25.952;2024-02-21T16:32:21;101722.53;;;11.38;69.16
46944;BME280;32678;43.852;25.952;2024-02-21T16:37:18;101722.75;;;11.26;69.39
46944;BME280;32678;43.852;25.952;2024-02-21T16:42:15;101733.16;;;11.30;69.02
46944;BME280;32678;43.852;25.952;2024-02-21T16:47:12;101731.56;;;11.23;67.89
46944;BME280;32678;43.852;25.952;2024-02-21T16:52:08;101735.38;;;11.07;67.97
46944;BME280;32678;43.852;25.952;2024-02-21T16:57:05;101736.97;;;11.16;67.83
46944;BME280;32678;43.852;25.952;2024-02-21T17:02:02;101738.88;;;11.08;67.28
46944;BME280;32678;43.852;25.952;2024-02-21T17:07:01;101735.47;;;11.03;66.89
46944;BME280;32678;43.852;25.952;2024-02-21T17:11:58;101736.34;;;11.03;66.44
46944;BME280;32678;43.852;25.952;2024-02-21T17:16:55;101741.72;;;10.97;66.77
46944;BME280;32678;43.852;25.952;2024-02-21T17:21:51;101740.84;;;10.97;67.07
46944;BME280;32678;43.852;25.952;2024-02-21T17:26:49;101746.00;;;11.00;67.14
46944;BME280;32678;43.852;25.952;2024-02-21T17:31:46;101741.72;;;10.97;67.02
46944;BME280;32678;43.852;25.952;2024-02-21T17:36:43;101749.69;;;10.91;66.91
46944;BME280;32678;43.852;25.952;2024-02-21T17:41:41;101736.25;;;11.08;66.91
46944;BME280;32678;43.852;25.952;2024-02-21T17:46:40;101741.41;;;11.14;67.65
46944;BME280;32678;43.852;25.952;2024-02-21T17:51:38;101740.53;;;11.13;69.10
46944;BME280;32678;43.852;25.952;2024-02-21T17:56:35;101749.09;;;11.23;69.57
46944;BME280;32678;43.852;25.952;2024-02-21T18:01:32;101746.38;;;11.26;69.93
46944;BME280;32678;43.852;25.952;2024-02-21T18:06:29;101754.97;;;11.34;70.08
46944;BME280;32678;43.852;25.952;2024-02-21T18:11:27;101758.66;;;11.24;70.27
46944;BME280;32678;43.852;25.952;2024-02-21T18:16:24;101759.69;;;11.18;70.77
46944;BME280;32678;43.852;25.952;2024-02-21T18:21:20;101754.44;;;11.18;71.12
46944;BME280;32678;43.852;25.952;2024-02-21T18:26:18;101755.34;;;11.14;71.45
46944;BME280;32678;43.852;25.952;2024-02-21T18:31:14;101759.78;;;11.12;71.62
46944;BME280;32678;43.852;25.952;2024-02-21T18:36:12;101761.53;;;11.13;71.79
46944;BME280;32678;43.852;25.952;2024-02-21T18:41:10;101758.03;;;11.13;71.72
46944;BME280;32678;43.852;25.952;2024-02-21T18:46:07;101752.66;;;10.73;72.94
46944;BME280;32678;43.852;25.952;2024-02-21T18:51:05;101756.88;;;10.29;71.90
46944;BME280;32678;43.852;25.952;2024-02-21T18:56:02;101757.16;;;10.08;71.29
46944;BME280;32678;43.852;25.952;2024-02-21T19:01:01;101761.81;;;10.48;70.80
46944;BME280;32678;43.852;25.952;2024-02-21T19:05:59;101761.56;;;10.63;71.33
46944;BME280;32678;43.852;25.952;2024-02-21T19:10:56;101758.41;;;10.42;71.75
46944;BME280;32678;43.852;25.952;2024-02-21T19:15:53;101765.41;;;10.42;69.65
46944;BME280;32678;43.852;25.952;2024-02-21T19:20:50;101765.22;;;10.54;70.42
46944;BME280;32678;43.852;25.952;2024-02-21T19:25:48;101764.38;;;10.52;72.00
46944;BME280;32678;43.852;25.952;2024-02-21T19:30:44;101753.91;;;10.51;72.17
46944;BME280;32678;43.852;25.952;2024-02-21T19:35:41;101758.16;;;10.59;72.14
46944;BME280;32678;43.852;25.952;2024-02-21T19:40:39;101755.38;;;10.65;72.15
46944;BME280;32678;43.852;25.952;2024-02-21T19:45:37;101764.91;;;10.71;71.99
46944;BME280;32678;43.852;25.952;2024-02-21T19:50:34;101765.50;;;9.75;75.79
46944;BME280;32678;43.852;25.952;2024-02-21T19:55:34;101771.34;;;9.28;73.64
46944;BME280;32678;43.852;25.952;2024-02-21T20:00:31;101784.66;;;9.05;73.67
46944;BME280;32678;43.852;25.952;2024-02-21T20:05:28;101782.28;;;8.81;74.23
46944;BME280;32678;43.852;25.952;2024-02-21T20:10:27;101789.31;;;8.77;74.25
46944;BME280;32678;43.852;25.952;2024-02-21T20:15:23;101785.72;;;8.86;73.83
46944;BME280;32678;43.852;25.952;2024-02-21T20:20:21;101786.81;;;8.63;74.84
46944;BME280;32678;43.852;25.952;2024-02-21T20:25:19;101783.28;;;8.67;74.36
46944;BME280;32678;43.852;25.952;2024-02-21T20:30:16;101787.47;;;8.87;73.89
46944;BME280;32678;43.852;25.952;2024-02-21T20:35:13;101787.84;;;8.44;76.93
46944;BME280;32678;43.852;25.952;2024-02-21T20:40:12;101793.03;;;8.47;78.05
46944;BME280;32678;43.852;25.952;2024-02-21T20:45:10;101801.75;;;8.46;79.12
46944;BME280;32678;43.852;25.952;2024-02-21T20:50:07;101805.28;;;8.41;79.60
46944;BME280;32678;43.852;25.952;2024-02-21T20:55:04;101800.13;;;8.28;80.09
46944;BME280;32678;43.852;25.952;2024-02-21T21:00:02;101805.34;;;8.33;80.13
46944;BME280;32678;43.852;25.952;2024-02-21T21:05:00;101793.91;;;8.48;79.84
46944;BME280;32678;43.852;25.952;2024-02-21T21:09:57;101795.78;;;8.34;81.04
46944;BME280;32678;43.852;25.952;2024-02-21T21:14:55;101789.47;;;8.59;80.05
46944;BME280;32678;43.852;25.952;2024-02-21T21:19:51;101787.03;;;8.36;81.43
46944;BME280;32678;43.852;25.952;2024-02-21T21:24:49;101783.56;;;8.28;82.19
46944;BME280;32678;43.852;25.952;2024-02-21T21:29:47;101796.56;;;8.45;82.41
46944;BME280;32678;43.852;25.952;2024-02-21T21:34:48;101792.19;;;8.47;82.77
46944;BME280;32678;43.852;25.952;2024-02-21T21:39:47;101789.63;;;8.38;83.66
46944;BME280;32678;43.852;25.952;2024-02-21T21:44:50;101795.69;;;8.44;84.26
46944;BME280;32678;43.852;25.952;2024-02-21T21:49:47;101804.34;;;8.54;83.85
46944;BME280;32678;43.852;25.952;2024-02-21T21:54:44;101808.44;;;8.82;82.97
46944;BME280;32678;43.852;25.952;2024-02-21T21:59:41;101810.09;;;8.92;81.97
46944;BME280;32678;43.852;25.952;2024-02-21T22:04:38;101814.50;;;8.87;82.14
46944;BME280;32678;43.852;25.952;2024-02-21T22:09:35;101798.13;;;8.67;82.97
46944;BME280;32678;43.852;25.952;2024-02-21T22:14:33;101793.63;;;8.80;82.33
46944;BME280;32678;43.852;25.952;2024-02-21T22:19:29;101789.56;;;8.48;82.57
46944;BME280;32678;43.852;25.952;2024-02-21T22:24:29;101782.63;;;8.43;82.54
46944;BME280;32678;43.852;25.952;2024-02-21T22:29:26;101789.53;;;8.53;82.42
46944;BME280;32678;43.852;25.952;2024-02-21T22:34:25;101778.06;;;8.69;81.39
46944;BME280;32678;43.852;25.952;2024-02-21T22:39:21;101797.94;;;8.85;80.78
46944;BME280;32678;43.852;25.952;2024-02-21T22:44:20;101793.53;;;8.92;80.99
46944;BME280;32678;43.852;25.952;2024-02-21T22:49:17;101790.03;;;8.90;81.53
46944;BME280;32678;43.852;25.952;2024-02-21T22:54:14;101792.50;;;9.05;80.63
46944;BME280;32678;43.852;25.952;2024-02-21T22:59:11;101789.88;;;9.08;80.16
46944;BME280;32678;43.852;25.952;2024-02-21T23:04:09;101795.78;;;9.25;79.11
46944;BME280;32678;43.852;25.952;2024-02-21T23:09:06;101788.09;;;9.13;79.72
46944;BME280;32678;43.852;25.952;2024-02-21T23:14:04;101786.50;;;8.95;80.03
46944;BME280;32678;43.852;25.952;2024-02-21T23:19:00;101783.06;;;8.90;80.50
46944;BME280;32678;43.852;25.952;2024-02-21T23:23:58;101782.19;;;8.91;80.63
46944;BME280;32678;43.852;25.952;2024-02-21T23:28:54;101788.13;;;9.08;79.88
46944;BME280;32678;43.852;25.952;2024-02-21T23:33:51;101784.91;;;8.84;80.24
46944;BME280;32678;43.852;25.952;2024-02-21T23:38:49;101784.72;;;9.02;79.12
46944;BME280;32678;43.852;25.952;2024-02-21T23:43:48;101780.50;;;8.86;79.54
46944;BME280;32678;43.852;25.952;2024-02-21T23:48:45;101778.84;;;8.79;79.40
46944;BME280;32678;43.852;25.952;2024-02-21T23:53:42;101785.72;;;8.89;78.57
46944;BME280;32678;43.852;25.952;2024-02-21T23:58:38;101784.13;;;8.74;78.84
